Time;durP1;ratioP1;P1;durP2;ratioP2;P2;SDS_P1;SDS_P2;PMS_P1;PMS_P2;Temp;Humidity;BMP_temperature;BMP_pressure;BME280_temperature;BME280_humidity;BME280_pressure;Samples;Min_cycle;Max_cycle;Signal;HPM_P1;HPM_P2
2024/01/04 00:00:29;;;;;;;;;4.75;2.00;;;;;10.70;67.93;99865.94;5035248;28;45645;-72
2024/01/04 00:02:55;;;;;;;;;1.00;1.00;;;;;10.69;68.46;99865.06;5023155;28;45660;-70
2024/01/04 00:05:21;;;;;;;;;1.00;0.00;;;;;10.68;68.00;99873.84;5020875;28;56218;-71
2024/01/04 00:07:49;;;;;;;;;2.75;0.75;;;;;10.67;68.48;99871.28;5033237;28;45358;-71
2024/01/04 00:10:14;;;;;;;;;1.00;0.50;;;;;10.64;68.28;99878.34;5030715;28;66994;-72
2024/01/04 00:12:40;;;;;;;;;3.75;1.00;;;;;10.64;68.14;99886.22;5030040;28;45268;-72
2024/01/04 00:15:07;;;;;;;;;5.00;1.50;;;;;10.63;68.22;99881.88;5024153;28;45558;-71
2024/01/04 00:17:32;;;;;;;;;5.75;2.00;;;;;10.63;68.76;99888.88;5026799;28;45415;-72
2024/01/04 00:19:57;;;;;;;;;1.75;1.00;;;;;10.63;68.03;99878.41;5003902;28;67424;-70
2024/01/04 00:22:23;;;;;;;;;1.00;0.00;;;;;10.59;68.69;99880.31;5036426;28;68991;-70
2024/01/04 00:24:48;;;;;;;;;1.00;0.75;;;;;10.57;68.46;99890.00;5036870;28;50923;-68
2024/01/04 00:27:14;;;;;;;;;4.00;1.00;;;;;10.55;68.48;99889.19;5038205;28;45467;-71
2024/01/04 00:29:39;;;;;;;;;1.75;1.00;;;;;10.54;68.27;99903.19;4994026;28;45465;-71
2024/01/04 00:32:04;;;;;;;;;3.50;0.75;;;;;10.53;68.52;99903.25;5014917;28;73130;-70
2024/01/04 00:34:30;;;;;;;;;7.00;0.75;;;;;10.51;68.29;99903.31;5016227;28;46028;-69
2024/01/04 00:36:57;;;;;;;;;1.00;0.00;;;;;10.50;68.17;99914.69;5023414;28;71206;-70
2024/01/04 00:39:24;;;;;;;;;3.00;0.25;;;;;10.48;68.63;99915.66;5038742;28;45321;-70
2024/01/04 00:41:53;;;;;;;;;5.50;1.00;;;;;10.47;68.62;99914.81;5025910;28;45563;-70
2024/01/04 00:44:18;;;;;;;;;3.00;1.00;;;;;10.47;68.58;99920.03;5032618;28;47193;-70
2024/01/04 00:46:43;;;;;;;;;1.50;1.50;;;;;10.46;68.68;99918.31;5026704;28;45214;-71
2024/01/04 00:49:09;;;;;;;;;4.75;1.50;;;;;10.45;68.70;99920.09;5015332;28;68964;-70
2024/01/04 00:51:34;;;;;;;;;3.75;1.00;;;;;10.47;68.42;99927.88;5034940;28;68348;-71
2024/01/04 00:53:59;;;;;;;;;0.00;0.00;;;;;10.46;68.73;99931.41;5005259;28;74329;-71
2024/01/04 00:56:31;;;;;;;;;1.50;0.75;;;;;10.44;68.88;99931.47;5034695;28;73301;-71
2024/01/04 00:58:56;;;;;;;;;2.50;1.00;;;;;10.43;68.54;99939.41;5025872;28;45381;-71
2024/01/04 01:01:21;;;;;;;;;3.25;1.00;;;;;10.42;68.79;99942.91;5029241;28;60856;-70
2024/01/04 01:03:47;;;;;;;;;3.50;0.00;;;;;10.41;68.68;99947.31;5028507;28;74615;-71
2024/01/04 01:06:12;;;;;;;;;1.75;1.00;;;;;10.40;68.57;99945.59;5025882;28;66207;-70
2024/01/04 01:08:37;;;;;;;;;1.50;1.00;;;;;10.42;68.95;99956.81;5031853;28;45320;-71
2024/01/04 01:11:03;;;;;;;;;1.00;1.00;;;;;10.40;68.91;99953.44;5019105;28;73225;-71
2024/01/04 01:13:28;;;;;;;;;1.75;1.75;;;;;10.41;68.81;99964.72;5028195;28;75699;-71
2024/01/04 01:15:53;;;;;;;;;2.00;2.00;;;;;10.40;69.00;99974.34;5036645;28;61890;-71
2024/01/04 01:18:18;;;;;;;;;7.50;2.75;;;;;10.39;69.12;99975.28;5027447;28;69364;-70
2024/01/04 01:20:44;;;;;;;;;2.75;0.00;;;;;10.37;68.87;99969.22;5025308;28;45653;-72
2024/01/04 01:23:10;;;;;;;;;0.75;0.75;;;;;10.37;69.00;99981.47;5034588;28;46014;-70
2024/01/04 01:25:35;;;;;;;;;3.00;1.00;;;;;10.36;69.01;99974.53;4989375;28;45464;-71
2024/01/04 01:28:01;;;;;;;;;1.50;0.50;;;;;10.36;68.88;99977.16;5038920;28;64726;-71
2024/01/04 01:30:29;;;;;;;;;0.00;0.00;;;;;10.34;69.20;99966.75;5037432;28;56646;-70
2024/01/04 01:32:54;;;;;;;;;2.25;0.00;;;;;10.34;68.99;99982.44;5016747;28;46238;-71
2024/01/04 01:35:19;;;;;;;;;1.50;0.00;;;;;10.34;69.06;99985.06;5036361;28;45565;-71
2024/01/04 01:37:45;;;;;;;;;3.00;0.00;;;;;10.33;69.23;99990.34;5020726;28;52723;-71
2024/01/04 01:40:11;;;;;;;;;1.00;0.00;;;;;10.31;69.03;99986.91;5026883;28;45435;-72
2024/01/04 01:42:36;;;;;;;;;2.25;1.00;;;;;10.27;68.97;99987.03;5029070;28;49670;-72
2024/01/04 01:45:02;;;;;;;;;3.00;0.75;;;;;10.29;69.39;99999.16;5019190;28;45242;-72
2024/01/04 01:47:28;;;;;;;;;6.75;0.75;;;;;10.27;69.16;99994.03;5039545;28;45258;-71
2024/01/04 01:49:54;;;;;;;;;2.50;0.00;;;;;10.25;69.06;99996.69;5026858;28;45396;-72
2024/01/04 01:52:20;;;;;;;;;3.00;1.00;;;;;10.23;69.45;100001.13;5013303;28;46395;-71
2024/01/04 01:54:47;;;;;;;;;0.50;0.00;;;;;10.25;69.40;100004.53;5012276;28;45648;-71
2024/01/04 01:57:13;;;;;;;;;1.25;1.00;;;;;10.24;69.32;100010.66;5012913;28;45489;-71
2024/01/04 01:59:38;;;;;;;;;0.00;0.00;;;;;10.24;69.21;100013.28;5035314;28;45313;-72
2024/01/04 02:02:04;;;;;;;;;1.75;0.00;;;;;10.23;69.21;100011.59;5015860;28;70588;-70
2024/01/04 02:04:29;;;;;;;;;3.50;1.00;;;;;10.21;69.47;100023.00;5011036;28;56244;-71
2024/01/04 02:06:54;;;;;;;;;3.50;0.50;;;;;10.21;69.47;100023.00;5036634;28;69271;-71
2024/01/04 02:09:20;;;;;;;;;2.00;2.00;;;;;10.21;69.47;100018.63;5035296;28;45388;-72
2024/01/04 02:11:45;;;;;;;;;1.00;1.00;;;;;10.21;69.51;100026.44;5028279;28;71215;-71
2024/01/04 02:14:10;;;;;;;;;2.50;0.00;;;;;10.19;69.53;100033.50;5034934;28;45167;-71
2024/01/04 02:16:36;;;;;;;;;2.50;1.00;;;;;10.20;69.40;100032.63;5028943;28;69260;-70
2024/01/04 02:19:03;;;;;;;;;3.25;0.00;;;;;10.18;69.29;100041.41;5034979;28;72165;-71
2024/01/04 02:21:28;;;;;;;;;4.00;1.00;;;;;10.19;69.23;100043.13;5010801;28;45255;-71
2024/01/04 02:23:53;;;;;;;;;1.00;0.50;;;;;10.18;69.38;100042.28;5025216;28;69312;-70
2024/01/04 02:26:19;;;;;;;;;3.25;1.75;;;;;10.18;69.32;100057.97;5033600;28;45752;-70
2024/01/04 02:28:44;;;;;;;;;2.00;1.00;;;;;10.14;69.34;100038.06;5026823;28;73250;-71
2024/01/04 02:31:10;;;;;;;;;1.00;0.00;;;;;10.17;69.29;100058.03;5030503;28;46001;-71
2024/01/04 02:33:35;;;;;;;;;1.00;0.50;;;;;10.16;69.42;100054.53;5028067;28;50860;-71
2024/01/04 02:36:00;;;;;;;;;0.00;0.00;;;;;10.15;69.33;100052.00;5015249;28;45393;-71
2024/01/04 02:38:26;;;;;;;;;2.50;0.75;;;;;10.12;68.82;100066.00;5013639;28;71744;-72
2024/01/04 02:40:53;;;;;;;;;1.00;0.00;;;;;10.14;68.51;100066.81;5011700;28;56068;-70
2024/01/04 02:43:18;;;;;;;;;3.00;1.00;;;;;10.14;69.13;100066.81;5001340;28;45457;-71
2024/01/04 02:45:44;;;;;;;;;4.00;1.00;;;;;10.13;68.80;100067.75;5021540;28;62633;-71
2024/01/04 02:48:09;;;;;;;;;4.25;1.00;;;;;10.14;69.02;100077.28;5011952;28;60873;-71
2024/01/04 02:50:34;;;;;;;;;5.00;1.00;;;;;10.16;68.74;100079.84;5027886;28;73661;-71
2024/01/04 02:53:00;;;;;;;;;2.25;0.00;;;;;10.14;68.79;100085.13;5019084;28;45517;-72
2024/01/04 02:55:25;;;;;;;;;5.00;0.00;;;;;10.15;68.81;100083.38;5005351;28;45440;-71
2024/01/04 02:57:51;;;;;;;;;3.50;0.00;;;;;10.19;68.72;100088.41;5011540;28;64153;-71
2024/01/04 03:00:17;;;;;;;;;3.00;1.00;;;;;10.20;68.70;100090.13;5010110;28;46116;-72
2024/01/04 03:02:43;;;;;;;;;1.25;0.75;;;;;10.23;68.65;100094.38;5010020;28;45545;-71
2024/01/04 03:05:08;;;;;;;;;1.00;0.00;;;;;10.27;68.73;100103.84;5010296;28;45157;-71
2024/01/04 03:07:34;;;;;;;;;3.75;1.00;;;;;10.32;68.10;100108.94;5016726;28;64133;-71
2024/01/04 03:10:00;;;;;;;;;4.50;0.75;;;;;10.37;68.75;100117.47;5010642;28;72593;-71
2024/01/04 03:12:26;;;;;;;;;1.00;1.00;;;;;10.41;68.87;100113.81;5017185;28;45969;-72
2024/01/04 03:14:51;;;;;;;;;3.00;0.75;;;;;10.44;68.96;100118.94;5017695;28;45876;-71
2024/01/04 03:17:17;;;;;;;;;5.00;0.25;;;;;10.45;69.18;100113.66;5014521;28;45793;-72
2024/01/04 03:19:42;;;;;;;;;1.00;1.00;;;;;10.48;69.27;100112.69;5012369;28;64903;-71
2024/01/04 03:22:07;;;;;;;;;0.00;0.00;;;;;10.48;69.28;100114.47;5013001;28;71885;-71
2024/01/04 03:24:33;;;;;;;;;2.75;0.50;;;;;10.44;69.24;100111.09;5017171;28;45460;-71
2024/01/04 03:26:58;;;;;;;;;6.00;1.00;;;;;10.44;69.55;100116.34;5005606;28;45472;-71
2024/01/04 03:29:23;;;;;;;;;3.00;1.00;;;;;10.43;69.50;100123.34;5022906;28;74368;-71
2024/01/04 03:31:49;;;;;;;;;4.00;0.00;;;;;10.45;69.70;100125.91;5022521;28;71561;-71
2024/01/04 03:34:15;;;;;;;;;1.00;1.00;;;;;10.46;69.32;100122.34;5006316;28;45398;-71
2024/01/04 03:36:40;;;;;;;;;2.00;1.00;;;;;10.50;69.24;100118.75;5025210;28;45604;-71
2024/01/04 03:39:06;;;;;;;;;1.00;1.00;;;;;10.53;69.28;100126.47;5015028;28;45583;-71
2024/01/04 03:41:31;;;;;;;;;3.25;1.00;;;;;10.57;68.94;100129.81;5005689;28;45390;-71
2024/01/04 03:43:57;;;;;;;;;3.00;0.25;;;;;10.59;69.13;100131.47;5005832;28;69568;-71
2024/01/04 03:46:22;;;;;;;;;3.00;1.00;;;;;10.61;68.52;100132.28;5030617;28;57899;-71
2024/01/04 03:48:47;;;;;;;;;0.00;0.00;;;;;10.64;68.42;100131.28;5015932;28;60169;-71
2024/01/04 03:51:13;;;;;;;;;2.00;0.00;;;;;10.63;68.36;100130.44;5010718;28;45376;-71
2024/01/04 03:53:38;;;;;;;;;2.00;0.75;;;;;10.60;68.39;100129.72;5009072;28;45424;-71
2024/01/04 03:56:04;;;;;;;;;0.50;0.00;;;;;10.61;68.04;100128.81;5013542;28;66607;-71
2024/01/04 03:58:29;;;;;;;;;5.00;2.00;;;;;10.60;68.03;100133.16;5028546;28;46380;-71
2024/01/04 04:00:55;;;;;;;;;1.00;0.00;;;;;10.61;68.01;100134.03;5010053;28;47208;-71
2024/01/04 04:03:20;;;;;;;;;4.25;0.25;;;;;10.62;67.85;100130.50;5013073;28;45349;-72
2024/01/04 04:05:45;;;;;;;;;4.00;0.00;;;;;10.64;68.24;100128.69;5012321;28;48499;-71
2024/01/04 04:08:11;;;;;;;;;3.50;1.00;;;;;10.64;67.79;100131.28;5010545;28;46069;-71
2024/01/04 04:10:36;;;;;;;;;1.00;0.00;;;;;10.60;68.03;100135.78;5017722;28;54585;-71
2024/01/04 04:13:01;;;;;;;;;0.00;0.00;;;;;10.60;68.20;100146.25;5017677;28;57351;-71
2024/01/04 04:15:27;;;;;;;;;1.75;0.00;;;;;10.62;67.99;100147.06;5006822;28;66072;-72
2024/01/04 04:17:55;;;;;;;;;2.00;1.00;;;;;10.66;68.14;100160.91;5007899;28;64816;-72
2024/01/04 04:20:20;;;;;;;;;3.00;0.50;;;;;10.68;67.91;100151.22;5031497;28;45522;-71
2024/01/04 04:22:45;;;;;;;;;1.25;0.00;;;;;10.67;67.64;100159.13;5012660;28;69254;-71
2024/01/04 04:25:11;;;;;;;;;5.75;0.00;;;;;10.62;67.85;100152.31;5008482;28;65056;-72
2024/01/04 04:27:36;;;;;;;;;3.00;1.00;;;;;10.56;67.59;100157.75;5008875;28;45462;-72
2024/01/04 04:30:02;;;;;;;;;5.00;1.00;;;;;10.52;67.81;100153.56;5009500;28;45889;-72
2024/01/04 04:32:27;;;;;;;;;3.00;0.00;;;;;10.45;67.88;100152.91;5012061;28;46318;-72
2024/01/04 04:34:52;;;;;;;;;2.50;0.00;;;;;10.41;67.89;100151.31;5012126;28;73552;-72
2024/01/04 04:37:18;;;;;;;;;3.25;0.00;;;;;10.39;67.72;100153.13;5028740;28;64439;-72
2024/01/04 04:39:43;;;;;;;;;1.00;0.75;;;;;10.38;68.04;100161.03;5006782;28;72921;-72
2024/01/04 04:42:08;;;;;;;;;1.00;0.75;;;;;10.36;68.07;100160.25;5026398;28;68203;-72
2024/01/04 04:44:34;;;;;;;;;2.50;0.50;;;;;10.33;68.15;100171.66;4999857;28;61143;-71
2024/01/04 04:46:59;;;;;;;;;1.00;1.00;;;;;10.30;68.08;100165.66;5026640;28;62279;-73
2024/01/04 04:49:25;;;;;;;;;2.25;0.75;;;;;10.26;68.20;100157.91;5025443;28;45530;-71
2024/01/04 04:51:51;;;;;;;;;2.75;0.75;;;;;10.26;68.20;100159.66;5024353;28;45310;-72
2024/01/04 04:54:16;;;;;;;;;2.75;0.50;;;;;10.23;68.43;100173.72;5019243;28;58468;-71
2024/01/04 04:56:42;;;;;;;;;2.75;1.00;;;;;10.20;68.27;100163.34;5029403;28;45599;-72
2024/01/04 04:59:07;;;;;;;;;6.75;1.00;;;;;10.17;68.20;100166.06;5012635;28;45513;-72
2024/01/04 05:01:32;;;;;;;;;3.25;1.00;;;;;10.17;68.28;100170.44;5009833;28;45489;-72
2024/01/04 05:03:58;;;;;;;;;5.50;1.00;;;;;10.14;68.47;100170.56;5033563;28;54485;-72
2024/01/04 05:06:23;;;;;;;;;3.00;1.00;;;;;10.13;68.53;100176.66;5026774;28;57169;-71
2024/01/04 05:08:48;;;;;;;;;4.75;1.75;;;;;10.11;68.85;100178.50;5033569;28;73316;-71
2024/01/04 05:11:14;;;;;;;;;3.50;1.00;;;;;10.08;68.63;100179.47;5036023;28;69720;-71
2024/01/04 05:13:39;;;;;;;;;2.00;0.50;;;;;10.05;68.86;100182.16;5015368;28;71877;-70
2024/01/04 05:16:05;;;;;;;;;3.50;1.00;;;;;10.03;68.72;100184.00;5016569;28;45247;-71
2024/01/04 05:18:31;;;;;;;;;2.75;0.50;;;;;10.01;68.93;100186.66;5030259;28;46369;-71
2024/01/04 05:20:57;;;;;;;;;4.00;0.50;;;;;9.98;68.80;100186.75;5020418;28;45312;-70
2024/01/04 05:23:23;;;;;;;;;0.75;0.00;;;;;9.97;69.09;100190.28;5041787;28;45433;-71
2024/01/04 05:25:48;;;;;;;;;4.00;2.00;;;;;9.96;69.25;100199.00;5015921;28;57320;-71
2024/01/04 05:28:14;;;;;;;;;3.00;0.00;;;;;9.96;69.38;100200.78;5031730;28;45479;-70
2024/01/04 05:30:39;;;;;;;;;5.75;1.00;;;;;9.94;69.05;100198.22;5013080;28;68231;-71
2024/01/04 05:33:04;;;;;;;;;1.75;1.00;;;;;9.93;69.26;100198.25;5036175;28;73026;-71
2024/01/04 05:35:30;;;;;;;;;3.00;1.00;;;;;9.92;69.33;100207.88;5005867;28;58939;-73
2024/01/04 05:37:56;;;;;;;;;0.25;0.25;;;;;9.91;69.10;100215.75;5015260;28;45568;-72
2024/01/04 05:40:21;;;;;;;;;4.25;1.00;;;;;9.87;69.22;100201.94;5029723;28;54512;-72
2024/01/04 05:42:46;;;;;;;;;5.00;0.00;;;;;9.85;69.37;100201.97;5020450;28;45557;-72
2024/01/04 05:45:12;;;;;;;;;4.00;1.25;;;;;9.84;69.37;100205.53;5036458;28;45450;-72
2024/01/04 05:47:37;;;;;;;;;2.50;1.00;;;;;9.82;69.77;100199.47;5035092;28;60576;-71
2024/01/04 05:50:03;;;;;;;;;1.00;1.00;;;;;9.82;69.83;100203.84;5011024;28;45377;-72
2024/01/04 05:52:29;;;;;;;;;2.75;1.00;;;;;9.80;69.76;100201.28;5023500;28;45592;-71
2024/01/04 05:54:54;;;;;;;;;3.00;1.00;;;;;9.78;69.50;100205.69;5036393;28;45546;-71
2024/01/04 05:57:19;;;;;;;;;4.50;1.00;;;;;9.77;69.51;100209.19;5030162;28;58832;-71
2024/01/04 05:59:45;;;;;;;;;3.50;0.75;;;;;9.76;69.80;100214.50;5029755;28;45440;-71
2024/01/04 06:02:10;;;;;;;;;1.75;1.00;;;;;9.75;70.20;100202.34;5038292;28;47070;-71
2024/01/04 06:04:35;;;;;;;;;3.00;0.75;;;;;9.74;70.08;100221.50;5013582;28;73480;-72
2024/01/04 06:07:01;;;;;;;;;7.75;3.00;;;;;9.74;70.06;100224.13;5014493;28;72963;-72
2024/01/04 06:09:26;;;;;;;;;2.25;0.25;;;;;9.73;70.25;100227.66;5028036;28;48760;-72
2024/01/04 06:11:51;;;;;;;;;3.00;1.00;;;;;9.72;70.42;100232.03;5031598;28;58179;-72
2024/01/04 06:14:17;;;;;;;;;5.25;1.00;;;;;9.69;70.51;100225.13;5038062;28;47011;-72
2024/01/04 06:16:42;;;;;;;;;3.25;0.75;;;;;9.69;70.43;100232.13;5031899;28;45467;-72
2024/01/04 06:19:08;;;;;;;;;3.50;0.50;;;;;9.68;70.76;100231.28;5011774;28;45282;-72
2024/01/04 06:21:33;;;;;;;;;5.50;2.25;;;;;9.67;71.02;100237.41;5026764;28;71910;-71
2024/01/04 06:23:59;;;;;;;;;5.00;1.25;;;;;9.66;70.71;100227.00;5013915;28;47268;-69
2024/01/04 06:26:24;;;;;;;;;7.25;1.00;;;;;9.66;71.10;100240.91;5026234;28;72219;-70
2024/01/04 06:28:50;;;;;;;;;4.25;0.00;;;;;9.66;70.60;100240.06;5026581;28;45476;-71
2024/01/04 06:31:15;;;;;;;;;7.00;1.00;;;;;9.66;70.89;100240.06;5026698;28;45384;-71
2024/01/04 06:33:40;;;;;;;;;2.00;0.00;;;;;9.67;70.99;100239.16;5029762;28;74213;-71
2024/01/04 06:36:06;;;;;;;;;4.25;0.25;;;;;9.72;71.24;100247.72;5025512;28;71011;-71
2024/01/04 06:38:31;;;;;;;;;2.25;1.00;;;;;9.77;71.23;100251.00;5018397;28;45369;-72
2024/01/04 06:40:58;;;;;;;;;1.75;0.75;;;;;9.82;71.06;100251.72;5019321;28;45497;-72
2024/01/04 06:43:24;;;;;;;;;2.00;1.00;;;;;9.85;71.14;100250.78;5027115;28;45472;-68
2024/01/04 06:45:50;;;;;;;;;3.00;1.00;;;;;9.91;71.02;100253.19;5010131;28;45622;-69
2024/01/04 06:48:16;;;;;;;;;1.00;1.00;;;;;9.93;70.72;100245.31;5030722;28;45422;-68
2024/01/04 06:50:43;;;;;;;;;3.50;1.00;;;;;9.98;70.73;100251.25;5033594;28;68314;-70
2024/01/04 06:53:10;;;;;;;;;6.00;1.00;;;;;10.03;70.93;100252.81;5032181;28;45608;-70
2024/01/04 06:55:35;;;;;;;;;3.50;1.00;;;;;10.09;70.65;100270.03;5036046;28;45851;-72
2024/01/04 06:58:01;;;;;;;;;1.50;1.00;;;;;10.12;70.47;100271.72;5024091;28;45557;-78
2024/01/04 07:00:26;;;;;;;;;2.00;1.00;;;;;10.14;70.38;100275.97;5008649;28;46152;-71
2024/01/04 07:02:52;;;;;;;;;2.00;0.25;;;;;10.18;70.73;100267.16;5009788;28;47882;-76
2024/01/04 07:05:17;;;;;;;;;5.75;1.00;;;;;10.23;70.31;100277.44;5034434;28;45385;-73
2024/01/04 07:07:42;;;;;;;;;2.50;1.00;;;;;10.27;70.00;100279.06;5036470;28;52229;-74
2024/01/04 07:10:09;;;;;;;;;4.00;0.50;;;;;10.30;70.14;100278.09;5041161;28;67041;-74
2024/01/04 07:12:34;;;;;;;;;2.75;1.00;;;;;10.31;69.65;100279.81;5032720;28;46227;-75
2024/01/04 07:15:00;;;;;;;;;2.75;1.00;;;;;10.32;70.12;100284.16;5017178;28;68788;-72
2024/01/04 07:17:25;;;;;;;;;4.50;1.00;;;;;10.31;69.86;100291.16;5027155;28;64320;-72
2024/01/04 07:19:50;;;;;;;;;2.00;1.00;;;;;10.29;69.86;100299.91;5023112;28;74169;-72
2024/01/04 07:22:16;;;;;;;;;3.75;1.00;;;;;10.29;70.12;100295.56;5019025;28;70978;-68
2024/01/04 07:24:42;;;;;;;;;5.00;2.00;;;;;10.28;69.75;100296.47;5018615;28;45371;-68
2024/01/04 07:27:08;;;;;;;;;3.50;0.75;;;;;10.31;70.21;100292.91;5024517;28;45582;-68
2024/01/04 07:29:33;;;;;;;;;6.75;1.00;;;;;10.33;69.78;100299.81;5038876;28;45294;-69
2024/01/04 07:31:59;;;;;;;;;3.50;2.00;;;;;10.30;69.73;100294.63;5010121;28;58763;-68
2024/01/04 07:34:24;;;;;;;;;3.00;0.25;;;;;10.26;69.91;100300.88;5034275;28;45661;-68
2024/01/04 07:36:51;;;;;;;;;4.75;1.00;;;;;10.24;70.20;100300.94;5023931;28;68320;-69
2024/01/04 07:39:16;;;;;;;;;4.00;2.00;;;;;10.23;70.03;100298.38;5012452;28;45471;-73
2024/01/04 07:41:43;;;;;;;;;1.00;1.00;;;;;10.16;70.21;100297.69;5030480;28;46115;-70
2024/01/04 07:44:09;;;;;;;;;4.00;0.00;;;;;10.16;70.18;100304.69;5033487;28;45381;-71
2024/01/04 07:46:34;;;;;;;;;3.00;2.00;;;;;10.14;70.45;100302.13;5017516;28;45477;-69
2024/01/04 07:48:59;;;;;;;;;2.75;1.00;;;;;10.12;70.26;100300.47;5032815;28;64099;-68
2024/01/04 07:51:25;;;;;;;;;4.75;1.50;;;;;10.07;70.29;100296.25;5031916;28;68111;-70
2024/01/04 07:53:50;;;;;;;;;4.75;1.00;;;;;10.06;70.75;100296.31;5015334;28;45329;-70
2024/01/04 07:56:15;;;;;;;;;5.25;1.75;;;;;10.03;70.89;100293.78;5019175;28;51384;-70
2024/01/04 07:58:41;;;;;;;;;1.75;1.00;;;;;10.01;70.92;100296.44;5029947;28;47159;-72
2024/01/04 08:01:06;;;;;;;;;2.75;1.00;;;;;9.98;70.59;100293.91;5010980;28;73564;-68
2024/01/04 08:03:32;;;;;;;;;3.00;1.00;;;;;9.98;70.94;100298.28;5007932;28;45565;-67
2024/01/04 08:05:57;;;;;;;;;3.75;1.00;;;;;9.96;70.95;100295.72;5017949;28;45199;-68
2024/01/04 08:08:22;;;;;;;;;4.75;1.00;;;;;9.93;71.04;100292.34;5029602;28;45151;-66
2024/01/04 08:10:48;;;;;;;;;5.00;2.00;;;;;9.91;71.23;100299.41;5017202;28;47536;-66
2024/01/04 08:13:16;;;;;;;;;1.75;1.75;;;;;9.89;71.30;100294.22;5018395;28;73948;-71
2024/01/04 08:15:42;;;;;;;;;2.50;1.00;;;;;9.89;71.45;100295.06;5038429;28;45517;-69
2024/01/04 08:18:07;;;;;;;;;5.00;2.00;;;;;9.87;71.11;100296.88;5028098;28;45590;-69
2024/01/04 08:20:32;;;;;;;;;2.50;1.00;;;;;9.87;71.25;100301.25;5021211;28;74890;-69
2024/01/04 08:22:58;;;;;;;;;7.25;2.00;;;;;9.84;71.24;100299.59;5023746;28;72107;-68
2024/01/04 08:25:24;;;;;;;;;2.00;1.00;;;;;9.83;71.55;100294.41;5031075;28;45509;-71
2024/01/04 08:27:49;;;;;;;;;8.75;1.00;;;;;9.83;71.66;100290.03;5025123;28;45440;-69
2024/01/04 08:30:14;;;;;;;;;2.50;1.50;;;;;9.84;71.52;100289.16;5035113;28;51349;-71
2024/01/04 08:32:41;;;;;;;;;6.00;2.25;;;;;9.83;71.56;100282.19;5035384;28;64320;-70
2024/01/04 08:35:07;;;;;;;;;2.00;1.50;;;;;9.84;71.58;100291.75;5036555;28;45301;-71
2024/01/04 08:37:33;;;;;;;;;3.50;2.00;;;;;9.84;71.61;100293.50;5009513;28;45602;-70
2024/01/04 08:39:59;;;;;;;;;1.00;0.25;;;;;9.84;71.77;100290.88;5020269;28;47091;-70
2024/01/04 08:42:24;;;;;;;;;5.00;2.75;;;;;9.82;71.73;100287.47;5041418;28;61837;-70
2024/01/04 08:44:49;;;;;;;;;3.75;1.50;;;;;9.82;72.01;100284.84;5030740;28;64059;-70
2024/01/04 08:47:15;;;;;;;;;4.00;1.75;;;;;9.83;71.78;100291.81;5030055;28;71520;-70
2024/01/04 08:49:40;;;;;;;;;7.75;2.75;;;;;9.84;71.77;100285.66;5009587;28;45652;-70
2024/01/04 08:52:06;;;;;;;;;5.50;1.25;;;;;9.85;72.31;100293.47;5041833;28;62976;-69
2024/01/04 08:54:31;;;;;;;;;3.25;1.00;;;;;9.83;72.29;100290.03;5023821;28;45364;-69
2024/01/04 08:56:56;;;;;;;;;4.50;1.75;;;;;9.87;71.75;100288.19;5018218;28;73104;-69
2024/01/04 08:59:22;;;;;;;;;5.25;2.50;;;;;9.89;72.00;100304.66;5020667;28;65096;-71
2024/01/04 09:01:49;;;;;;;;;8.00;1.75;;;;;9.87;71.91;100299.47;5036859;28;45924;-71
2024/01/04 09:04:14;;;;;;;;;4.00;1.00;;;;;9.88;72.16;100293.38;5013439;28;45682;-70
2024/01/04 09:06:40;;;;;;;;;6.75;3.00;;;;;9.92;71.98;100296.75;5011708;28;66537;-71
2024/01/04 09:09:07;;;;;;;;;6.75;1.00;;;;;9.93;71.94;100292.34;5031475;28;45338;-70
2024/01/04 09:11:40;;;;;;;;;5.25;2.00;;;;;9.94;72.00;100291.47;5012112;28;45318;-70
2024/01/04 09:14:07;;;;;;;;;6.25;3.25;;;;;9.95;72.35;100288.81;5025021;28;45342;-70
2024/01/04 09:16:34;;;;;;;;;5.50;1.50;;;;;9.97;72.12;100297.47;5019591;28;45476;-71
2024/01/04 09:19:00;;;;;;;;;7.75;1.00;;;;;9.96;71.90;100293.13;5035958;28;46111;-70
2024/01/04 09:21:27;;;;;;;;;6.00;2.00;;;;;10.02;72.14;100302.50;5022917;28;45526;-71
2024/01/04 09:23:52;;;;;;;;;7.00;2.75;;;;;10.03;72.17;100301.63;5034927;28;56117;-70
2024/01/04 09:26:18;;;;;;;;;4.75;2.25;;;;;10.06;72.33;100291.09;5035970;28;45350;-71
2024/01/04 09:28:43;;;;;;;;;8.00;3.00;;;;;10.07;72.01;100293.66;5023937;28;45338;-71
2024/01/04 09:31:09;;;;;;;;;4.00;1.25;;;;;10.11;71.96;100294.41;5036204;28;45463;-71
2024/01/04 09:33:35;;;;;;;;;4.00;1.50;;;;;10.14;72.12;100296.91;5049015;28;45416;-70
2024/01/04 09:36:00;;;;;;;;;10.00;3.00;;;;;10.17;72.06;100298.56;5027896;28;45540;-70
2024/01/04 09:38:27;;;;;;;;;4.50;2.50;;;;;10.20;72.07;100288.03;5036315;28;63365;-70
2024/01/04 09:40:57;;;;;;;;;3.50;3.00;;;;;10.22;72.04;100286.22;5024503;28;45438;-71
2024/01/04 09:43:22;;;;;;;;;3.50;1.00;;;;;10.24;72.18;100295.69;5023638;28;45526;-69
2024/01/04 09:45:48;;;;;;;;;7.25;1.00;;;;;10.26;72.04;100308.72;5017249;28;45350;-69
2024/01/04 09:48:18;;;;;;;;;5.50;2.00;;;;;10.30;72.30;100304.25;5017076;28;75344;-71
2024/01/04 09:50:45;;;;;;;;;5.75;3.75;;;;;10.32;71.95;100297.25;5023987;28;45693;-70
2024/01/04 09:53:11;;;;;;;;;8.00;4.25;;;;;10.39;72.14;100302.25;5021955;28;45466;-71
2024/01/04 09:55:36;;;;;;;;;7.25;3.00;;;;;10.45;72.33;100298.56;5023731;28;45460;-71
2024/01/04 09:58:03;;;;;;;;;7.75;3.00;;;;;10.49;72.11;100294.06;5031787;28;75446;-69
2024/01/04 10:00:28;;;;;;;;;6.00;2.75;;;;;10.53;72.04;100295.66;5035214;28;45357;-71
2024/01/04 10:02:54;;;;;;;;;7.00;3.50;;;;;10.56;71.81;100288.56;5021787;28;45392;-69
2024/01/04 10:05:20;;;;;;;;;9.00;2.25;;;;;10.68;71.94;100289.03;5024133;28;60337;-71
2024/01/04 10:07:56;;;;;;;;;5.75;3.00;;;;;10.80;71.90;100284.25;5023344;28;45482;-70
2024/01/04 10:10:23;;;;;;;;;7.00;3.75;;;;;10.99;71.80;100286.22;4992589;28;45752;-69
2024/01/04 10:12:49;;;;;;;;;9.00;2.75;;;;;11.14;71.25;100287.44;5003643;28;45367;-70
2024/01/04 10:15:17;;;;;;;;;8.50;3.50;;;;;11.25;71.00;100287.88;5023658;28;57204;-70
2024/01/04 10:17:45;;;;;;;;;9.00;5.25;;;;;11.38;71.16;100291.78;5033038;28;46988;-70
2024/01/04 10:20:11;;;;;;;;;7.75;3.00;;;;;11.49;70.44;100291.38;5028375;28;45940;-70
2024/01/04 10:22:36;;;;;;;;;10.00;3.25;;;;;11.60;70.73;100288.34;5011731;28;45342;-71
2024/01/04 10:25:09;;;;;;;;;11.00;5.75;;;;;11.72;70.22;100277.38;5027209;28;73407;-71
2024/01/04 10:27:34;;;;;;;;;7.50;6.00;;;;;11.80;69.91;100271.81;5037894;28;46291;-70
2024/01/04 10:30:04;;;;;;;;;6.00;3.00;;;;;11.88;69.82;100274.13;5036678;28;50697;-69
2024/01/04 10:32:30;;;;;;;;;8.00;5.00;;;;;11.92;69.88;100274.00;5034056;28;45616;-71
2024/01/04 10:35:03;;;;;;;;;9.25;5.00;;;;;11.96;69.62;100278.19;5014890;28;45461;-70
2024/01/04 10:37:28;;;;;;;;;8.75;4.25;;;;;11.98;69.51;100267.63;5003653;28;46057;-69
2024/01/04 10:39:59;;;;;;;;;11.50;6.25;;;;;12.01;69.42;100270.13;5021078;28;58749;-71
2024/01/04 10:42:24;;;;;;;;;12.25;4.25;;;;;12.04;69.32;100263.91;5032766;28;45459;-69
2024/01/04 10:44:53;;;;;;;;;9.00;4.00;;;;;12.03;68.93;100262.22;5033338;28;45469;-70
2024/01/04 10:47:19;;;;;;;;;45.25;34.25;;;;;12.03;69.45;100256.97;5026589;28;46114;-69
2024/01/04 10:49:47;;;;;;;;;25.50;14.50;;;;;12.05;69.07;100263.00;5032814;28;70844;-70
2024/01/04 10:52:16;;;;;;;;;19.25;10.00;;;;;12.05;69.11;100252.50;5033117;28;45344;-70
2024/01/04 10:54:43;;;;;;;;;11.25;7.00;;;;;12.08;69.21;100255.88;5021553;28;45751;-69
2024/01/04 10:57:09;;;;;;;;;6.25;4.75;;;;;12.11;69.08;100252.25;5034320;28;45419;-71
2024/01/04 10:59:36;;;;;;;;;5.00;4.00;;;;;12.13;68.84;100246.03;5014672;28;45283;-71
2024/01/04 11:02:01;;;;;;;;;10.50;5.00;;;;;12.14;69.04;100241.63;5022753;28;45411;-70
2024/01/04 11:04:27;;;;;;;;;10.00;4.25;;;;;12.18;69.23;100237.13;5012450;28;45383;-70
2024/01/04 11:06:53;;;;;;;;;6.25;4.00;;;;;12.23;69.38;100246.50;5029444;28;48501;-71
2024/01/04 11:09:19;;;;;;;;;12.50;5.75;;;;;12.26;69.14;100237.66;5010752;28;45532;-70
2024/01/04 11:11:45;;;;;;;;;9.50;5.00;;;;;12.28;69.15;100234.03;5040848;28;45325;-70
2024/01/04 11:14:10;;;;;;;;;14.25;6.00;;;;;12.29;69.10;100232.28;5029726;28;70573;-70
2024/01/04 11:17:00;;;;;;;;;6.00;2.25;;;;;12.26;68.81;100235.03;5031296;28;71988;-70
2024/01/04 11:19:42;;;;;;;;;10.50;4.00;;;;;12.21;69.01;100237.84;5029919;28;45883;-69
2024/01/04 11:22:38;;;;;;;;;13.00;6.00;;;;;12.19;69.22;100223.94;5023557;28;45221;-70